Time;durP1;ratioP1;P1;durP2;ratioP2;P2;SDS_P1;SDS_P2;PMS_P1;PMS_P2;Temp;Humidity;BMP_temperature;BMP_pressure;BME280_temperature;BME280_humidity;BME280_pressure;Samples;Min_cycle;Max_cycle;Signal;HPM_P1;HPM_P2
2022/11/14 00:02:38;;;;;;;80.43;33.33;;;;;;;6.94;100.00;101645.97;3546457;80;98949;-86
2022/11/14 00:07:39;;;;;;;89.33;35.23;;;;;;;6.97;100.00;101642.02;3538940;82;34891;-86
2022/11/14 00:12:39;;;;;;;89.23;37.30;;;;;;;6.98;100.00;101644.20;3546051;80;98967;-86
2022/11/14 00:17:40;;;;;;;87.03;35.97;;;;;;;6.98;100.00;101640.89;3550115;82;34855;-87
2022/11/14 00:22:41;;;;;;;87.08;34.75;;;;;;;7.00;100.00;101630.98;3544124;80;99033;-87
2022/11/14 00:27:42;;;;;;;80.72;32.98;;;;;;;6.99;100.00;101625.28;3553699;81;34841;-86
2022/11/14 00:32:42;;;;;;;86.33;33.80;;;;;;;7.03;100.00;101612.56;3542462;80;99096;-85
2022/11/14 00:37:43;;;;;;;93.17;35.10;;;;;;;7.04;100.00;101614.95;3562965;81;26255;-88
2022/11/14 00:42:44;;;;;;;88.87;36.33;;;;;;;7.05;100.00;101592.50;3561290;80;99010;-86
2022/11/14 00:47:45;;;;;;;81.40;34.07;;;;;;;7.05;100.00;101585.66;3529386;81;25866;-87
2022/11/14 00:52:45;;;;;;;86.47;35.45;;;;;;;7.08;100.00;101582.25;3523364;81;98672;-86
2022/11/14 00:57:46;;;;;;;88.47;37.67;;;;;;;7.09;100.00;101584.67;3529269;81;32509;-87
2022/11/14 01:02:47;;;;;;;85.27;33.90;;;;;;;7.09;100.00;101579.78;3563511;80;98808;-87
2022/11/14 01:07:48;;;;;;;80.85;37.28;;;;;;;7.06;100.00;101574.39;3568366;81;32469;-87
2022/11/14 01:12:49;;;;;;;89.70;34.73;;;;;;;7.09;100.00;101566.09;3561242;80;99002;-86
2022/11/14 01:17:50;;;;;;;81.37;36.03;;;;;;;7.10;100.00;101567.70;3568788;81;25800;-87
2022/11/14 01:22:51;;;;;;;80.70;34.50;;;;;;;7.09;100.00;101569.63;3561029;80;98906;-86
2022/11/14 01:27:51;;;;;;;85.43;36.13;;;;;;;7.11;100.00;101566.02;3567723;80;25955;-85
2022/11/14 01:32:52;;;;;;;92.07;36.30;;;;;;;7.12;100.00;101547.08;3560547;80;98724;-86
2022/11/14 01:37:53;;;;;;;92.87;38.17;;;;;;;7.17;100.00;101549.64;3558842;81;25954;-86
2022/11/14 01:43:20;;;;;;;88.90;37.03;;;;;;;7.16;100.00;101555.44;3550593;80;98786;-87
2022/11/14 01:48:38;;;;;;;86.75;37.25;;;;;;;7.13;100.00;101548.68;3522324;81;28211;-87
2022/11/14 01:53:40;;;;;;;93.58;39.60;;;;;;;7.14;100.00;101543.44;3494774;81;98724;-87
2022/11/14 01:58:46;;;;;;;86.67;35.92;;;;;;;7.15;100.00;101540.15;3504495;83;32401;-85
2022/11/14 02:03:49;;;;;;;88.75;37.98;;;;;;;7.18;100.00;101535.37;3494978;82;98585;-85
2022/11/14 02:08:51;;;;;;;86.72;36.42;;;;;;;7.17;100.00;101522.27;3502503;83;32840;-86
2022/11/14 02:13:52;;;;;;;91.05;38.45;;;;;;;7.19;100.00;101512.36;3490982;82;98585;-87
2022/11/14 02:18:53;;;;;;;88.20;36.83;;;;;;;7.17;100.00;101510.50;3557705;81;26480;-86
2022/11/14 02:23:53;;;;;;;100.17;41.73;;;;;;;7.16;100.00;101504.79;3488253;81;98919;-85
2022/11/14 02:28:55;;;;;;;94.27;38.63;;;;;;;7.16;100.00;101496.58;3557294;81;26325;-87
2022/11/14 02:33:56;;;;;;;97.07;40.10;;;;;;;7.16;100.00;101489.18;3490242;81;98512;-86
2022/11/14 02:38:57;;;;;;;93.03;39.83;;;;;;;7.18;100.00;101495.67;3559037;81;25856;-86
2022/11/14 02:43:58;;;;;;;86.67;36.97;;;;;;;7.18;100.00;101491.02;3551939;80;98658;-85
2022/11/14 02:48:58;;;;;;;100.07;41.63;;;;;;;7.18;100.00;101490.20;3557388;81;26806;-88
2022/11/14 02:53:59;;;;;;;91.40;37.23;;;;;;;7.13;100.00;101472.03;3516847;81;99048;-85
2022/11/14 02:59:00;;;;;;;94.65;37.15;;;;;;;7.12;100.00;101467.69;3557539;81;26303;-88
2022/11/14 03:04:01;;;;;;;104.93;41.57;;;;;;;7.11;100.00;101461.98;3517354;80;98873;-86
2022/11/14 03:09:02;;;;;;;92.40;40.40;;;;;;;7.11;100.00;101452.41;3559732;81;33242;-86
2022/11/14 03:14:03;;;;;;;90.13;39.53;;;;;;;7.11;100.00;101454.33;3490833;81;98642;-86
2022/11/14 03:19:03;;;;;;;92.30;38.07;;;;;;;7.09;100.00;101440.96;3556908;81;33300;-86
2022/11/14 03:24:05;;;;;;;91.27;37.90;;;;;;;7.07;100.00;101440.50;3488911;81;98682;-85
2022/11/14 03:29:06;;;;;;;84.53;38.37;;;;;;;7.04;100.00;101437.03;3557573;81;33221;-86
2022/11/14 03:34:09;;;;;;;90.97;39.37;;;;;;;7.05;100.00;101426.91;3519343;80;98497;-86
2022/11/14 03:39:10;;;;;;;93.07;41.43;;;;;;;7.00;100.00;101428.45;3557035;81;33303;-87
2022/11/14 03:44:11;;;;;;;96.47;40.70;;;;;;;6.97;100.00;101433.20;3551727;80;99095;-86
2022/11/14 03:49:11;;;;;;;101.57;44.03;;;;;;;6.95;100.00;101432.19;3557978;81;33200;-86
2022/11/14 03:54:12;;;;;;;99.28;40.78;;;;;;;6.97;100.00;101426.36;3549890;80;99082;-85
2022/11/14 03:59:13;;;;;;;104.43;44.97;;;;;;;6.96;100.00;101431.60;3527073;82;33229;-86
2022/11/14 04:04:14;;;;;;;101.23;43.03;;;;;;;6.95;100.00;101421.80;3546687;80;98621;-87
2022/11/14 04:09:15;;;;;;;98.15;41.77;;;;;;;6.93;100.00;101412.53;3525593;82;33223;-88
2022/11/14 04:14:15;;;;;;;101.03;45.73;;;;;;;6.91;100.00;101416.17;3552397;80;98843;-87
2022/11/14 04:19:16;;;;;;;111.00;46.73;;;;;;;6.87;100.00;101407.59;3495954;83;31680;-86
2022/11/14 04:24:17;;;;;;;98.30;40.07;;;;;;;6.87;100.00;101413.07;3551651;79;98653;-86
2022/11/14 04:29:18;;;;;;;102.53;40.60;;;;;;;6.83;100.00;101414.27;3524661;82;32820;-87
2022/11/14 04:34:19;;;;;;;109.93;43.20;;;;;;;6.81;100.00;101412.43;3522400;80;98658;-86
2022/11/14 04:39:19;;;;;;;103.53;43.23;;;;;;;6.81;100.00;101411.64;3556398;81;31790;-86
2022/11/14 04:44:20;;;;;;;96.73;41.57;;;;;;;6.73;100.00;101406.44;3550968;80;98790;-86
2022/11/14 04:49:22;;;;;;;99.77;40.23;;;;;;;6.68;100.00;101394.86;3558059;81;31304;-87
2022/11/14 04:54:22;;;;;;;88.60;35.90;;;;;;;6.61;100.00;101403.56;3550673;80;98836;-86
2022/11/14 04:59:23;;;;;;;83.47;35.63;;;;;;;6.50;100.00;101396.05;3557783;81;26258;-86
2022/11/14 05:04:25;;;;;;;86.23;35.27;;;;;;;6.46;100.00;101395.09;3551708;80;98568;-86
2022/11/14 05:09:25;;;;;;;94.73;34.83;;;;;;;6.43;100.00;101403.38;3495371;83;35431;-86
2022/11/14 05:14:26;;;;;;;87.40;35.93;;;;;;;6.47;100.00;101402.16;3553445;80;98904;-86
2022/11/14 05:19:27;;;;;;;83.20;33.17;;;;;;;6.46;100.00;101396.46;3526126;81;35398;-85
2022/11/14 05:24:28;;;;;;;87.17;34.70;;;;;;;6.44;100.00;101382.32;3551149;79;98816;-86
2022/11/14 05:29:29;;;;;;;81.23;34.07;;;;;;;6.40;100.00;101367.69;3522961;82;34916;-86
2022/11/14 05:34:30;;;;;;;84.70;35.03;;;;;;;6.34;100.00;101364.31;3551504;80;98534;-86
2022/11/14 05:39:31;;;;;;;81.02;33.30;;;;;;;6.30;100.00;101377.05;3535532;81;34830;-86
2022/11/14 05:44:32;;;;;;;89.47;33.03;;;;;;;6.30;100.00;101380.33;3535806;80;98525;-85
2022/11/14 05:49:32;;;;;;;91.20;37.23;;;;;;;6.31;100.00;101385.48;3539387;81;26832;-87
2022/11/14 05:54:33;;;;;;;90.53;32.88;;;;;;;6.33;100.00;101385.95;3533189;80;98758;-86
2022/11/14 05:59:34;;;;;;;95.20;36.53;;;;;;;6.34;100.00;101384.81;3540311;82;32426;-86
2022/11/14 06:04:35;;;;;;;97.63;37.53;;;;;;;6.34;100.00;101378.56;3543423;80;98709;-86
2022/11/14 06:09:36;;;;;;;96.47;36.27;;;;;;;6.36;100.00;101385.31;3548869;82;32533;-87
2022/11/14 06:14:36;;;;;;;99.10;36.77;;;;;;;6.35;100.00;101380.98;3543780;80;98672;-87
2022/11/14 06:19:37;;;;;;;103.35;36.75;;;;;;;6.34;100.00;101376.61;3550311;82;32474;-86
2022/11/14 06:24:38;;;;;;;100.17;38.77;;;;;;;6.38;100.00;101392.61;3540340;80;98922;-86
2022/11/14 06:29:39;;;;;;;104.73;39.50;;;;;;;6.37;100.00;101390.20;3550825;81;26180;-86
2022/11/14 06:34:39;;;;;;;98.33;38.53;;;;;;;6.38;100.00;101387.15;3543493;81;98781;-85
2022/11/14 06:39:40;;;;;;;94.47;38.60;;;;;;;6.37;100.00;101378.71;3556302;81;26313;-85
2022/11/14 06:44:41;;;;;;;112.87;41.00;;;;;;;6.24;100.00;101366.05;3513582;81;98668;-86
2022/11/14 06:49:42;;;;;;;102.83;40.70;;;;;;;6.36;100.00;101392.70;3555220;81;26323;-86
2022/11/14 06:54:42;;;;;;;105.47;41.90;;;;;;;6.37;100.00;101390.20;3481563;82;98849;-85
2022/11/14 06:59:44;;;;;;;100.93;39.73;;;;;;;6.37;100.00;101387.47;3551450;81;26519;-85
2022/11/14 07:04:44;;;;;;;94.50;38.13;;;;;;;6.28;100.00;101379.87;3484571;81;99008;-85
2022/11/14 07:09:45;;;;;;;90.80;36.03;;;;;;;6.39;100.00;101387.96;3553765;81;33354;-85
2022/11/14 07:14:46;;;;;;;93.33;40.50;;;;;;;6.42;100.00;101377.17;3488241;81;98854;-85
2022/11/14 07:19:46;;;;;;;81.83;34.27;;;;;;;6.42;100.00;101371.70;3557118;81;33339;-84
2022/11/14 07:24:47;;;;;;;87.17;35.87;;;;;;;6.45;100.00;101375.72;3485394;81;98466;-85
2022/11/14 07:29:48;;;;;;;100.17;43.03;;;;;;;6.44;100.00;101363.18;3551328;81;33718;-85
2022/11/14 07:34:49;;;;;;;83.58;34.58;;;;;;;6.46;100.00;101361.73;3484345;81;98649;-84
2022/11/14 07:39:50;;;;;;;84.60;35.10;;;;;;;6.45;100.00;101354.66;3559936;81;32105;-86
2022/11/14 07:44:51;;;;;;;107.60;39.47;;;;;;;6.41;100.00;101352.88;3560482;80;98509;-85
2022/11/14 07:49:51;;;;;;;97.03;38.93;;;;;;;6.47;100.00;101361.14;3562111;81;32205;-85
2022/11/14 07:54:52;;;;;;;103.47;40.07;;;;;;;6.54;100.00;101364.20;3557456;80;98824;-85
2022/11/14 07:59:53;;;;;;;93.80;38.83;;;;;;;6.59;100.00;101354.41;3564420;81;31655;-85
2022/11/14 08:04:54;;;;;;;96.67;37.60;;;;;;;6.61;100.00;101359.80;3555857;80;98835;-87
2022/11/14 08:09:54;;;;;;;99.50;40.53;;;;;;;6.66;100.00;101356.88;3561280;81;31695;-85
2022/11/14 08:14:55;;;;;;;90.38;38.53;;;;;;;6.68;100.00;101345.06;3557011;80;98552;-85
2022/11/14 08:19:56;;;;;;;92.53;38.40;;;;;;;6.66;100.00;101348.68;3559852;80;34895;-87
2022/11/14 08:24:57;;;;;;;84.17;36.40;;;;;;;6.67;100.00;101348.13;3554393;80;98709;-88
2022/11/14 08:29:58;;;;;;;85.70;37.63;;;;;;;6.65;100.00;101357.23;3565955;81;34859;-85
2022/11/14 08:34:58;;;;;;;76.47;34.87;;;;;;;6.62;100.00;101351.86;3557890;80;98823;-86
2022/11/14 08:39:59;;;;;;;73.63;33.87;;;;;;;6.63;100.00;101345.25;3566116;81;34979;-87
2022/11/14 08:45:00;;;;;;;77.93;34.10;;;;;;;6.71;100.00;101338.92;3518708;81;98649;-87
2022/11/14 08:50:01;;;;;;;83.87;40.83;;;;;;;6.76;100.00;101331.90;3526850;81;35392;-87
2022/11/14 08:55:02;;;;;;;79.55;35.25;;;;;;;6.79;100.00;101326.34;3559308;79;98689;-87
2022/11/14 09:00:04;;;;;;;78.72;35.83;;;;;;;6.85;100.00;101342.80;3565286;81;35443;-86
2022/11/14 09:05:05;;;;;;;76.85;34.33;;;;;;;6.88;100.00;101327.10;3558394;80;98561;-86
2022/11/14 09:10:07;;;;;;;70.57;32.53;;;;;;;6.90;100.00;101335.22;3540776;81;33992;-86
2022/11/14 09:15:08;;;;;;;73.70;34.85;;;;;;;6.91;100.00;101340.11;3502213;82;98646;-87
2022/11/14 09:20:09;;;;;;;74.23;37.07;;;;;;;6.92;100.00;101338.41;3522431;82;26237;-85
2022/11/14 09:25:10;;;;;;;67.83;31.97;;;;;;;6.96;100.00;101319.40;3551857;79;98506;-85
2022/11/14 09:30:12;;;;;;;67.90;30.80;;;;;;;6.97;100.00;101316.34;3560617;81;32542;-86
2022/11/14 09:35:13;;;;;;;61.57;29.70;;;;;;;7.03;100.00;101315.59;3536957;81;98665;-85
2022/11/14 09:40:15;;;;;;;67.63;32.20;;;;;;;7.12;100.00;101311.66;3560106;81;33047;-85
2022/11/14 09:45:16;;;;;;;69.47;33.70;;;;;;;7.24;100.00;101308.17;3562030;80;33777;-85
2022/11/14 09:50:28;;;;;;;67.30;32.10;;;;;;;7.28;100.00;101297.61;3554178;80;98641;-85
2022/11/14 09:55:31;;;;;;;61.28;30.52;;;;;;;7.32;100.00;101278.58;3564557;81;35059;-84
2022/11/14 10:00:52;;;;;;;65.15;32.10;;;;;;;7.41;100.00;101265.62;3559299;80;98840;-85
2022/11/14 10:06:10;;;;;;;65.32;33.50;;;;;;;7.49;100.00;101259.25;3561209;81;35451;-84
2022/11/14 10:11:53;;;;;;;68.67;34.38;;;;;;;7.59;100.00;101256.11;3554497;80;98822;-83
2022/11/14 10:17:22;;;;;;;67.20;31.73;;;;;;;7.64;100.00;101255.90;3559106;81;35048;-86
2022/11/14 10:23:00;;;;;;;61.42;32.08;;;;;;;7.65;100.00;101252.83;3553697;79;98745;-85
2022/11/14 10:28:16;;;;;;;66.05;33.23;;;;;;;7.75;100.00;101243.37;3562936;81;33819;-86
2022/11/14 10:33:46;;;;;;;70.97;38.55;;;;;;;7.86;100.00;101246.70;3540835;80;98856;-85
2022/11/14 10:39:05;;;;;;;53.10;30.25;;;;;;;7.86;100.00;101244.55;3522031;81;34533;-85
2022/11/14 10:44:11;;;;;;;66.40;32.97;;;;;;;7.92;100.00;101239.08;3506262;82;98958;-85
2022/11/14 10:49:22;;;;;;;65.00;35.27;;;;;;;8.02;100.00;101228.46;3579242;80;25929;-86
2022/11/14 10:54:49;;;;;;;59.58;29.25;;;;;;;8.05;100.00;101222.31;3580120;80;98697;-85
2022/11/14 10:59:52;;;;;;;65.57;34.10;;;;;;;8.18;100.00;101219.02;3585922;80;35030;-86
2022/11/14 11:04:59;;;;;;;68.02;34.05;;;;;;;8.29;100.00;101210.02;3561322;81;98923;-85
2022/11/14 11:15:32;;;;;;;74.77;36.40;;;;;;;8.41;100.00;101212.75;3549058;81;35370;-86
2022/11/14 11:20:39;;;;;;;71.17;36.73;;;;;;;8.53;100.00;101206.47;3521414;80;98795;-86
2022/11/14 11:25:44;;;;;;;61.63;33.75;;;;;;;8.57;100.00;101208.17;3551079;81;34198;-85
2022/11/14 11:30:58;;;;;;;62.83;32.35;;;;;;;8.66;100.00;101206.11;3547686;81;98680;-85
2022/11/14 11:36:16;;;;;;;62.78;32.95;;;;;;;8.68;100.00;101190.68;3523993;82;35423;-86
2022/11/14 11:41:31;;;;;;;57.93;31.23;;;;;;;8.69;100.00;101194.45;3535478;80;98727;-86
2022/11/14 11:46:44;;;;;;;62.62;33.98;;;;;;;8.66;100.00;101181.41;3592159;80;33060;-86
2022/11/14 11:51:46;;;;;;;58.87;31.70;;;;;;;8.73;100.00;101173.98;3568846;80;98967;-86
2022/11/14 11:56:51;;;;;;;53.48;30.27;;;;;;;8.80;100.00;101175.55;3531641;82;35984;-86
2022/11/14 12:01:52;;;;;;;60.67;32.70;;;;;;;8.83;100.00;101161.94;3519832;80;99472;-85
2022/11/14 12:07:01;;;;;;;59.87;34.23;;;;;;;8.85;100.00;101173.38;3536497;81;99022;-86
2022/11/14 12:12:10;;;;;;;58.50;31.17;;;;;;;8.91;100.00;101159.64;3554204;81;31078;-86
2022/11/14 12:17:53;;;;;;;55.83;31.33;;;;;;;8.93;100.00;101153.21;3524699;81;98906;-85
2022/11/14 12:23:27;;;;;;;54.75;31.10;;;;;;;8.96;100.00;101148.98;3531637;82;34570;-85
2022/11/14 12:28:58;;;;;;;53.78;29.10;;;;;;;8.94;100.00;101147.94;3535903;82;33296;-85
2022/11/14 12:34:16;;;;;;;47.25;27.93;;;;;;;8.94;100.00;101132.84;3523556;81;99098;-85
2022/11/14 12:39:25;;;;;;;52.70;28.50;;;;;;;8.93;100.00;101126.33;3576452;81;35985;-85
2022/11/14 12:44:31;;;;;;;58.42;29.23;;;;;;;8.90;100.00;101123.70;3543045;82;99050;-85
2022/11/14 12:49:55;;;;;;;54.03;29.02;;;;;;;8.96;100.00;101131.13;3553337;82;26598;-85
2022/11/14 12:54:56;;;;;;;52.75;29.00;;;;;;;8.97;100.00;101120.37;3551156;81;98968;-85
2022/11/14 13:00:02;;;;;;;52.67;29.83;;;;;;;8.99;100.00;101115.34;3555902;82;25876;-85
2022/11/14 13:05:14;;;;;;;49.25;27.60;;;;;;;9.01;100.00;101093.81;3544720;81;99218;-85
2022/11/14 13:10:32;;;;;;;48.15;26.68;;;;;;;9.03;100.00;101093.69;3554853;81;35760;-85
2022/11/14 13:21:44;;;;;;;44.10;26.95;;;;;;;9.05;100.00;101084.52;3519439;82;34956;-85
2022/11/14 13:26:49;;;;;;;44.25;26.50;;;;;;;9.02;100.00;101092.11;3477207;82;98792;-85
2022/11/14 13:31:50;;;;;;;47.90;27.13;;;;;;;9.01;100.00;101086.95;3469080;83;33925;-85
2022/11/14 13:37:09;;;;;;;46.08;26.80;;;;;;;9.01;100.00;101091.07;3456915;84;98805;-86
2022/11/14 13:42:32;;;;;;;48.87;26.12;;;;;;;8.99;100.00;101070.83;3469524;84;34920;-85
2022/11/14 13:47:50;;;;;;;50.80;27.30;;;;;;;8.99;100.00;101074.94;3513015;82;99152;-85
2022/11/14 13:52:52;;;;;;;49.25;28.42;;;;;;;8.97;100.00;101066.83;3532443;82;34946;-85
2022/11/14 13:58:37;;;;;;;51.10;28.40;;;;;;;8.96;100.00;101066.61;3521638;82;98888;-86
2022/11/14 14:04:24;;;;;;;49.38;27.10;;;;;;;8.94;100.00;101058.72;3517039;82;98860;-84
2022/11/14 14:09:59;;;;;;;49.35;27.48;;;;;;;8.91;100.00;101049.83;3430990;83;25973;-85
2022/11/14 14:15:23;;;;;;;52.48;28.17;;;;;;;8.86;100.00;101036.92;3442725;83;99165;-85
2022/11/14 14:20:59;;;;;;;52.15;29.07;;;;;;;8.84;100.00;101033.73;3443836;84;33096;-87
2022/11/14 14:26:42;;;;;;;49.13;27.10;;;;;;;8.80;100.00;101039.14;3423918;83;99143;-85
2022/11/14 14:31:43;;;;;;;52.65;27.58;;;;;;;8.75;100.00;101035.27;3412222;85;34799;-85
2022/11/14 14:36:54;;;;;;;53.27;28.27;;;;;;;8.68;100.00;101023.30;3418357;84;98896;-86
2022/11/14 14:41:57;;;;;;;54.95;30.20;;;;;;;8.65;100.00;101022.05;3477043;83;34908;-85
2022/11/14 14:46:58;;;;;;;55.78;31.20;;;;;;;8.60;100.00;101012.69;3519497;81;98890;-85
2022/11/14 14:51:59;;;;;;;54.80;30.15;;;;;;;8.56;100.00;101015.12;3517403;82;34614;-85
2022/11/14 14:57:01;;;;;;;54.90;30.90;;;;;;;8.49;100.00;101021.19;3478457;82;98682;-85
2022/11/14 15:02:02;;;;;;;55.52;29.23;;;;;;;8.39;100.00;101003.06;3458954;83;34284;-85
2022/11/14 15:07:03;;;;;;;55.43;30.70;;;;;;;8.33;100.00;101004.44;3484127;81;98924;-86
2022/11/14 15:12:05;;;;;;;54.83;30.23;;;;;;;8.26;100.00;101000.13;3493357;82;25841;-86
2022/11/14 15:17:06;;;;;;;52.65;29.10;;;;;;;8.18;100.00;100995.55;3488471;81;98912;-86
2022/11/14 15:22:24;;;;;;;61.47;33.40;;;;;;;8.11;100.00;101002.18;3486307;83;25843;-86
2022/11/14 15:27:26;;;;;;;63.65;32.03;;;;;;;8.02;100.00;100996.83;3516413;81;98858;-86
2022/11/14 15:32:27;;;;;;;56.92;34.27;;;;;;;7.96;100.00;100990.59;3532368;82;33301;-85
2022/11/14 15:37:28;;;;;;;58.20;33.53;;;;;;;7.87;100.00;100981.69;3496850;82;98677;-85
2022/11/14 15:42:28;;;;;;;60.37;33.67;;;;;;;7.79;100.00;100982.63;3505450;83;32498;-86
2022/11/14 15:47:37;;;;;;;108.33;54.83;;;;;;;7.69;100.00;100979.77;3512401;82;98875;-86
2022/11/14 15:52:48;;;;;;;72.70;35.80;;;;;;;7.62;100.00;100978.73;3514912;82;33521;-86
2022/11/14 15:57:49;;;;;;;71.30;36.83;;;;;;;7.55;100.00;100984.81;3511447;82;98983;-87
2022/11/14 16:02:54;;;;;;;74.60;35.95;;;;;;;7.48;100.00;100983.19;3503125;81;35340;-85
2022/11/14 16:07:56;;;;;;;69.77;37.08;;;;;;;7.36;100.00;100970.09;3511013;81;99040;-87
2022/11/14 16:12:57;;;;;;;70.62;36.15;;;;;;;7.36;100.00;100970.09;3510783;82;33064;-86
2022/11/14 16:17:58;;;;;;;75.53;37.87;;;;;;;7.31;100.00;100972.47;3501139;81;98854;-86
2022/11/14 16:22:58;;;;;;;71.95;35.23;;;;;;;7.25;100.00;100971.10;3510498;81;31039;-87
2022/11/14 16:27:59;;;;;;;70.33;34.63;;;;;;;7.13;100.00;100956.60;3502100;81;98847;-86
2022/11/14 16:33:00;;;;;;;64.37;33.17;;;;;;;7.13;100.00;100956.60;3515382;81;33192;-85
2022/11/14 16:38:01;;;;;;;75.73;37.63;;;;;;;7.04;100.00;100951.23;3510672;81;98824;-85
2022/11/14 16:43:02;;;;;;;75.53;38.07;;;;;;;6.98;100.00;100951.81;3513108;82;33900;-86
2022/11/14 16:48:03;;;;;;;76.30;38.08;;;;;;;6.93;100.00;100959.66;3511899;81;98717;-84
2022/11/14 16:53:04;;;;;;;86.97;41.33;;;;;;;6.89;100.00;100955.22;3518169;82;29667;-85
2022/11/14 16:58:06;;;;;;;75.07;37.73;;;;;;;6.83;100.00;100957.36;3505870;82;98883;-85
2022/11/14 17:03:07;;;;;;;75.40;37.03;;;;;;;6.77;100.00;100952.46;3518093;81;25740;-86
2022/11/14 17:08:07;;;;;;;75.47;36.53;;;;;;;6.71;100.00;100951.86;3515722;81;99093;-86
2022/11/14 17:13:09;;;;;;;79.83;38.60;;;;;;;6.67;100.00;100950.15;3517785;81;26075;-86
2022/11/14 17:18:10;;;;;;;76.40;38.17;;;;;;;6.61;100.00;100952.88;3556472;81;98964;-86
2022/11/14 17:23:10;;;;;;;74.73;36.33;;;;;;;6.55;100.00;100952.86;3559664;81;26681;-85
2022/11/14 17:28:12;;;;;;;73.70;36.80;;;;;;;6.52;100.00;100942.58;3561239;81;98947;-85
2022/11/14 17:33:13;;;;;;;76.37;37.60;;;;;;;6.51;100.00;100944.53;3563688;81;25840;-83
2022/11/14 17:38:13;;;;;;;78.70;37.33;;;;;;;6.47;100.00;100933.22;3557871;80;98789;-84
2022/11/14 17:43:16;;;;;;;83.03;39.08;;;;;;;6.40;100.00;100931.61;3536545;81;25907;-84
2022/11/14 17:48:16;;;;;;;67.10;34.30;;;;;;;6.34;100.00;100931.00;3475701;82;98725;-85
2022/11/14 17:53:18;;;;;;;67.90;34.13;;;;;;;6.31;100.00;100928.16;3479009;82;33286;-85
2022/11/14 17:58:19;;;;;;;75.37;37.43;;;;;;;6.28;100.00;100924.16;3540539;82;98678;-85
2022/11/14 18:03:21;;;;;;;78.33;38.30;;;;;;;6.23;100.00;100924.36;3547637;82;33197;-85
2022/11/14 18:08:24;;;;;;;79.97;38.03;;;;;;;6.19;100.00;100923.45;3480429;83;98901;-84
2022/11/14 18:13:29;;;;;;;75.97;35.97;;;;;;;6.14;100.00;100922.30;3479404;83;99869;-84
2022/11/14 18:18:35;;;;;;;82.40;38.63;;;;;;;6.12;100.00;100923.77;3471846;83;26469;-84
2022/11/14 18:23:37;;;;;;;81.03;39.33;;;;;;;6.09;100.00;100925.78;3479009;83;98761;-84
2022/11/14 18:28:38;;;;;;;76.53;36.43;;;;;;;6.06;100.00;100927.84;3490879;83;26435;-85
2022/11/14 18:33:40;;;;;;;74.30;36.23;;;;;;;6.02;100.00;100919.52;3476946;82;101124;-84
2022/11/14 18:38:43;;;;;;;81.27;37.63;;;;;;;5.99;100.00;100926.19;3480784;82;25902;-86
2022/11/14 18:43:44;;;;;;;79.55;37.45;;;;;;;5.95;100.00;100911.62;3503703;82;99050;-86
2022/11/14 18:48:48;;;;;;;76.30;37.70;;;;;;;5.90;100.00;100910.45;3484263;83;26260;-86
2022/11/14 18:53:54;;;;;;;76.43;35.00;;;;;;;5.86;100.00;100913.61;3495538;83;99123;-84
2022/11/14 18:58:55;;;;;;;77.20;35.90;;;;;;;5.83;100.00;100913.71;3504855;81;26497;-86
2022/11/14 19:03:59;;;;;;;79.20;40.47;;;;;;;5.75;100.00;100904.19;3512613;82;99211;-86
2022/11/14 19:09:04;;;;;;;89.33;41.47;;;;;;;5.72;100.00;100899.41;3535984;82;25856;-84
2022/11/14 19:14:05;;;;;;;82.43;40.20;;;;;;;5.67;100.00;100887.31;3519035;82;99098;-84
2022/11/14 19:19:08;;;;;;;97.33;47.03;;;;;;;5.63;100.00;100888.52;3531680;82;25791;-85
2022/11/14 19:24:09;;;;;;;84.42;41.90;;;;;;;5.60;100.00;100894.66;3524927;82;99275;-85
2022/11/14 19:29:12;;;;;;;90.77;45.93;;;;;;;5.56;100.00;100889.62;3526594;82;33346;-85
2022/11/14 19:34:13;;;;;;;80.38;36.23;;;;;;;5.54;100.00;100887.81;3522131;82;99141;-85
2022/11/14 19:39:14;;;;;;;76.07;36.50;;;;;;;5.49;100.00;100881.17;3531562;82;33790;-85
2022/11/14 19:44:15;;;;;;;80.83;38.50;;;;;;;5.45;100.00;100886.28;3508335;82;98965;-84
2022/11/14 19:49:16;;;;;;;83.73;38.40;;;;;;;5.40;100.00;100880.42;3478763;82;33224;-85
2022/11/14 19:54:17;;;;;;;79.20;36.27;;;;;;;5.38;100.00;100876.42;3455909;82;98924;-84
2022/11/14 19:59:18;;;;;;;75.97;36.80;;;;;;;5.34;100.00;100871.42;3334875;86;33242;-85
2022/11/14 20:04:19;;;;;;;72.13;37.33;;;;;;;5.33;100.00;100869.80;3353414;85;98976;-84
2022/11/14 20:09:19;;;;;;;75.60;35.97;;;;;;;5.28;100.00;100869.44;3399332;83;99597;-85
2022/11/14 20:14:20;;;;;;;78.63;36.43;;;;;;;5.23;100.00;100862.80;3439810;84;33265;-85
2022/11/14 20:19:21;;;;;;;70.87;34.90;;;;;;;5.21;100.00;100858.25;3435772;83;98981;-85
2022/11/14 20:24:23;;;;;;;77.53;37.73;;;;;;;5.14;100.00;100853.86;3448519;84;31649;-85
2022/11/14 20:29:24;;;;;;;95.03;40.90;;;;;;;5.10;100.00;100850.22;3432518;83;99415;-85
2022/11/14 20:34:24;;;;;;;92.47;44.20;;;;;;;5.08;100.00;100846.22;3437645;84;32221;-86
2022/11/14 20:39:25;;;;;;;87.43;40.37;;;;;;;5.07;100.00;100841.90;3427434;83;98883;-84
2022/11/14 20:44:26;;;;;;;88.83;39.57;;;;;;;5.02;100.00;100842.87;3477957;83;32874;-85
2022/11/14 20:49:27;;;;;;;84.30;39.30;;;;;;;4.98;100.00;100834.32;3493523;82;98892;-85
2022/11/14 20:54:28;;;;;;;103.80;46.30;;;;;;;4.95;100.00;100835.77;3507158;82;32194;-84
2022/11/14 20:59:29;;;;;;;93.20;44.47;;;;;;;4.93;100.00;100829.86;3499167;81;99213;-85
2022/11/14 21:04:30;;;;;;;90.30;41.17;;;;;;;4.93;100.00;100830.41;3509251;81;31625;-84
2022/11/14 21:09:30;;;;;;;96.80;43.70;;;;;;;4.90;100.00;100823.69;3504437;82;99200;-85
2022/11/14 21:14:31;;;;;;;89.03;42.90;;;;;;;4.90;100.00;100825.05;3515254;82;34845;-85
2022/11/14 21:19:32;;;;;;;88.33;41.40;;;;;;;4.89;100.00;100826.19;3485807;82;99149;-85
2022/11/14 21:24:33;;;;;;;90.38;42.53;;;;;;;4.83;100.00;100819.33;3516193;82;29481;-85
2022/11/14 21:29:33;;;;;;;93.60;45.87;;;;;;;4.83;100.00;100829.42;3508221;81;99267;-85
2022/11/14 21:34:34;;;;;;;107.53;49.30;;;;;;;4.82;100.00;100824.55;3519754;82;35799;-86
2022/11/14 21:39:35;;;;;;;108.07;49.33;;;;;;;4.79;100.00;100817.02;3503901;83;99149;-85
2022/11/14 21:44:36;;;;;;;102.35;44.42;;;;;;;4.77;100.00;100815.19;3514244;82;34845;-85
2022/11/14 21:49:36;;;;;;;95.27;45.60;;;;;;;4.70;100.00;100788.20;3511020;81;99294;-86
2022/11/14 21:54:37;;;;;;;105.00;46.03;;;;;;;4.71;100.00;100805.60;3510771;82;33181;-85
2022/11/14 21:59:38;;;;;;;100.87;44.03;;;;;;;4.69;100.00;100801.02;3485918;82;99261;-86
2022/11/14 22:04:39;;;;;;;98.23;46.63;;;;;;;4.67;100.00;100797.02;3502102;82;33056;-85
2022/11/14 22:09:39;;;;;;;90.07;44.63;;;;;;;4.65;100.00;100791.90;3520693;82;98974;-85
2022/11/14 22:14:40;;;;;;;93.80;44.07;;;;;;;4.64;100.00;100785.44;3537557;82;32509;-85
2022/11/14 22:19:41;;;;;;;97.65;42.30;;;;;;;4.60;100.00;100788.02;3521171;82;98940;-86
2022/11/14 22:24:42;;;;;;;89.13;40.83;;;;;;;4.60;100.00;100787.20;3539427;82;28232;-86
2022/11/14 22:29:42;;;;;;;105.10;46.27;;;;;;;4.56;100.00;100787.07;3532197;82;99089;-86
2022/11/14 22:34:43;;;;;;;96.43;41.30;;;;;;;4.54;100.00;100781.71;3529631;82;25915;-86
2022/11/14 22:39:44;;;;;;;91.67;44.37;;;;;;;4.53;100.00;100774.09;3522795;83;98832;-86
2022/11/14 22:44:45;;;;;;;99.00;44.47;;;;;;;4.53;100.00;100778.17;3523568;82;26013;-86
2022/11/14 22:49:45;;;;;;;95.77;42.93;;;;;;;4.51;100.00;100780.44;3533429;82;99044;-85
2022/11/14 22:54:46;;;;;;;99.66;41.54;;;;;;;4.47;100.00;100768.59;3516158;83;26180;-86
2022/11/14 22:59:47;;;;;;;99.40;42.97;;;;;;;4.47;100.00;100776.77;3521640;82;98959;-86
2022/11/14 23:04:48;;;;;;;102.47;43.17;;;;;;;4.48;100.00;100759.28;3529442;82;33228;-86
2022/11/14 23:09:49;;;;;;;104.20;43.93;;;;;;;4.48;100.00;100766.09;3528050;82;99127;-85
2022/11/14 23:14:49;;;;;;;102.27;45.13;;;;;;;4.49;100.00;100752.73;3534646;82;33189;-86